Time;durP1;ratioP1;P1;durP2;ratioP2;P2;SDS_P1;SDS_P2;PMS_P1;PMS_P2;Temp;Humidity;BMP_temperature;BMP_pressure;BME280_temperature;BME280_humidity;BME280_pressure;Samples;Min_cycle;Max_cycle;Signal;HPM_P1;HPM_P2
2021/12/31 00:01:31;;;;;;;5.73;3.17;;;;;;;16.01;73.21;101247.72;4948016;28;102054;-52
2021/12/31 00:03:57;;;;;;;4.17;2.93;;;;;;;16.01;73.16;101244.94;4946138;28;97365;-50
2021/12/31 00:06:22;;;;;;;3.70;3.13;;;;;;;16.01;73.08;101242.16;4951660;28;97101;-54
2021/12/31 00:08:47;;;;;;;5.37;2.90;;;;;;;15.97;73.05;101247.25;4947276;28;116626;-51
2021/12/31 00:11:12;;;;;;;4.47;2.97;;;;;;;15.98;73.09;101248.00;4949553;28;125571;-49
2021/12/31 00:13:38;;;;;;;3.20;2.80;;;;;;;15.98;73.09;101242.47;4949236;28;112321;-52
2021/12/31 00:16:03;;;;;;;9.97;3.40;;;;;;;15.99;72.90;101250.25;4947871;28;97601;-52
2021/12/31 00:18:29;;;;;;;5.10;3.07;;;;;;;15.99;72.83;101253.03;4947653;28;97456;-50
2021/12/31 00:20:55;;;;;;;5.20;3.93;;;;;;;15.97;72.70;101252.78;4949832;28;103203;-52
2021/12/31 00:23:24;;;;;;;3.50;2.83;;;;;;;15.96;72.79;101251.31;4946366;28;97451;-49
2021/12/31 00:25:50;;;;;;;5.17;3.60;;;;;;;15.95;72.76;101246.25;4946905;28;96692;-51
2021/12/31 00:28:15;;;;;;;5.90;4.27;;;;;;;15.92;72.79;101248.06;4944981;28;96821;-49
2021/12/31 00:30:41;;;;;;;5.30;4.23;;;;;;;15.90;72.82;101247.06;4950531;28;98068;-50
2021/12/31 00:33:08;;;;;;;6.43;4.37;;;;;;;15.90;72.66;101252.59;4949108;28;97523;-52
2021/12/31 00:35:35;;;;;;;8.33;5.10;;;;;;;15.88;72.74;101244.78;4946413;28;97176;-50
2021/12/31 00:38:01;;;;;;;6.07;4.67;;;;;;;15.87;72.69;101243.28;4951925;28;96758;-50
2021/12/31 00:40:26;;;;;;;7.13;3.97;;;;;;;15.85;72.61;101245.84;4947844;28;97541;-49
2021/12/31 00:42:53;;;;;;;8.20;3.93;;;;;;;15.86;72.73;101241.03;4943695;28;97930;-50
2021/12/31 00:45:20;;;;;;;4.70;4.30;;;;;;;15.89;72.68;101245.53;4949055;28;96931;-52
2021/12/31 00:47:46;;;;;;;6.23;4.30;;;;;;;15.89;72.60;101242.75;4947095;28;102512;-53
2021/12/31 00:50:13;;;;;;;7.83;4.10;;;;;;;15.90;72.46;101250.56;4947778;28;100618;-52
2021/12/31 00:52:39;;;;;;;5.73;4.60;;;;;;;15.90;72.42;101250.56;4948199;28;99770;-49
2021/12/31 00:55:05;;;;;;;8.97;4.77;;;;;;;15.88;72.51;101253.09;4944378;28;96955;-51
2021/12/31 00:57:31;;;;;;;5.60;4.40;;;;;;;15.91;72.42;101265.22;4952013;28;96669;-49
2021/12/31 00:59:57;;;;;;;3.60;3.30;;;;;;;15.89;72.47;101257.41;4949803;28;97265;-50
2021/12/31 01:02:26;;;;;;;4.67;3.80;;;;;;;15.91;72.53;101260.41;4945580;28;101646;-51
2021/12/31 01:04:51;;;;;;;6.87;3.60;;;;;;;15.93;72.39;101268.22;4953778;28;96886;-49
2021/12/31 01:07:17;;;;;;;6.50;3.80;;;;;;;15.93;72.57;101257.88;4949317;28;97357;-50
2021/12/31 01:09:42;;;;;;;3.30;3.00;;;;;;;15.97;72.41;101263.91;4948428;28;126322;-50
2021/12/31 01:12:10;;;;;;;4.57;3.47;;;;;;;15.98;72.28;101267.44;4949082;28;97629;-50
2021/12/31 01:15:21;;;;;;;5.17;3.10;;;;;;;15.96;72.19;101267.97;4945689;28;97059;-50
2021/12/31 01:17:50;;;;;;;2.97;2.77;;;;;;;15.97;72.31;101277.00;4928843;28;96870;-53
2021/12/31 01:20:18;;;;;;;4.37;2.63;;;;;;;15.96;72.26;101273.50;4933843;28;101483;-50
2021/12/31 01:22:43;;;;;;;6.20;3.03;;;;;;;15.95;72.16;101272.00;4929193;28;97563;-53
2021/12/31 01:25:09;;;;;;;2.77;2.30;;;;;;;15.97;72.21;101263.91;4934424;28;97433;-50
2021/12/31 01:27:36;;;;;;;3.27;3.00;;;;;;;15.98;72.11;101257.09;4925301;28;96730;-54
2021/12/31 01:30:03;;;;;;;4.37;3.00;;;;;;;15.94;72.24;101256.63;4937708;28;97509;-50
2021/12/31 01:32:30;;;;;;;7.20;2.63;;;;;;;15.96;72.28;101251.31;4948512;28;96660;-50
2021/12/31 01:34:56;;;;;;;3.87;3.23;;;;;;;15.98;72.07;101253.56;4929420;28;96833;-54
2021/12/31 01:37:21;;;;;;;3.03;2.83;;;;;;;15.97;72.00;101246.50;4945219;28;96874;-49
2021/12/31 01:39:47;;;;;;;8.83;2.93;;;;;;;15.96;72.12;101250.53;4929157;28;122001;-52
2021/12/31 01:42:17;;;;;;;3.17;2.97;;;;;;;15.94;71.95;101251.06;4932161;28;115339;-50
2021/12/31 01:44:52;;;;;;;3.00;2.80;;;;;;;15.95;72.14;101255.34;4924833;28;97140;-53
2021/12/31 01:47:21;;;;;;;4.40;3.50;;;;;;;15.95;72.09;101260.88;4927512;28;96889;-51
2021/12/31 01:49:56;;;;;;;2.90;2.50;;;;;;;15.96;72.08;101262.41;4927498;28;97547;-49
2021/12/31 01:52:22;;;;;;;3.40;2.67;;;;;;;15.96;72.04;101270.72;4944133;28;97379;-52
2021/12/31 01:54:48;;;;;;;3.20;2.90;;;;;;;15.95;71.94;101263.66;4946622;28;96762;-52
2021/12/31 01:57:13;;;;;;;3.20;3.00;;;;;;;15.95;71.90;101263.66;4946203;28;97368;-49
2021/12/31 01:59:41;;;;;;;3.73;3.53;;;;;;;15.96;71.91;101265.19;4951567;28;96670;-50
2021/12/31 02:02:08;;;;;;;5.53;2.93;;;;;;;15.96;72.20;101269.97;4943831;28;98425;-52
2021/12/31 02:04:37;;;;;;;3.47;3.17;;;;;;;15.97;71.80;101269.44;4943548;28;97308;-51
2021/12/31 02:07:03;;;;;;;3.20;3.00;;;;;;;15.98;71.96;101273.75;4940717;28;97354;-53
2021/12/31 02:09:31;;;;;;;4.17;3.10;;;;;;;15.99;71.88;101274.50;4943402;28;97392;-51
2021/12/31 02:11:57;;;;;;;5.33;3.33;;;;;;;16.00;71.87;101276.00;4944521;28;100249;-51
2021/12/31 02:14:24;;;;;;;5.90;3.33;;;;;;;15.99;71.92;101280.78;4951054;28;97148;-55
2021/12/31 02:16:50;;;;;;;5.90;3.70;;;;;;;16.01;71.79;101281.03;4946072;28;97142;-50
2021/12/31 02:19:17;;;;;;;3.40;3.20;;;;;;;16.02;71.70;101279.00;4951420;28;97271;-49
2021/12/31 02:21:46;;;;;;;5.17;3.50;;;;;;;16.00;71.66;101285.09;4945017;28;97215;-49
2021/12/31 02:24:12;;;;;;;4.73;3.27;;;;;;;16.01;71.77;101297.69;4944435;28;97175;-51
2021/12/31 02:26:38;;;;;;;3.43;3.13;;;;;;;16.01;71.64;101292.13;4946235;28;97226;-51
2021/12/31 02:29:03;;;;;;;3.90;3.60;;;;;;;16.02;71.69;101295.66;4944220;28;97490;-50
2021/12/31 02:31:29;;;;;;;4.20;3.57;;;;;;;16.02;71.64;101295.66;4942499;28;97190;-50
2021/12/31 02:33:55;;;;;;;6.37;3.50;;;;;;;16.03;71.70;101299.97;4946929;28;96730;-49
2021/12/31 02:36:20;;;;;;;5.33;3.70;;;;;;;16.02;71.59;101307.53;4948508;28;97082;-50
2021/12/31 02:38:45;;;;;;;6.40;3.63;;;;;;;16.02;71.59;101301.97;4949837;28;97288;-51
2021/12/31 02:41:11;;;;;;;6.40;3.30;;;;;;;16.02;71.61;101299.19;4947720;28;121985;-55
2021/12/31 02:43:38;;;;;;;3.87;2.90;;;;;;;16.02;71.61;101312.31;4947501;28;101450;-49
2021/12/31 02:46:03;;;;;;;3.60;3.37;;;;;;;16.02;71.53;101313.06;4942934;28;96887;-51
2021/12/31 02:48:28;;;;;;;5.17;3.33;;;;;;;16.02;71.51;101307.53;4945533;28;97423;-53
2021/12/31 02:50:56;;;;;;;3.63;3.27;;;;;;;16.00;71.54;101300.97;4944355;28;97169;-49
2021/12/31 02:53:35;;;;;;;4.27;3.90;;;;;;;16.02;71.26;101304.00;4944321;28;96929;-48
2021/12/31 02:56:05;;;;;;;4.93;3.97;;;;;;;16.02;71.44;101304.75;4943041;28;96663;-53
2021/12/31 02:58:33;;;;;;;6.37;3.40;;;;;;;16.03;71.51;101300.69;4948308;28;97379;-50
2021/12/31 03:00:58;;;;;;;4.30;3.27;;;;;;;16.02;71.47;101309.53;4951026;28;97682;-50
2021/12/31 03:03:24;;;;;;;5.93;3.50;;;;;;;15.99;71.33;101305.78;4942928;28;97549;-53
2021/12/31 03:05:53;;;;;;;6.23;3.73;;;;;;;16.02;71.43;101304.00;4950223;28;96763;-52
2021/12/31 03:08:20;;;;;;;4.87;3.40;;;;;;;16.01;71.46;101300.47;4944580;28;97440;-49
2021/12/31 03:10:46;;;;;;;3.30;3.00;;;;;;;16.02;71.45;101306.75;4950810;28;100392;-50
2021/12/31 03:13:14;;;;;;;3.70;3.40;;;;;;;16.01;71.49;101297.69;4951022;28;97216;-50
2021/12/31 03:15:39;;;;;;;3.67;3.27;;;;;;;16.02;71.30;101296.44;4946280;28;97148;-49
2021/12/31 03:18:06;;;;;;;3.67;3.37;;;;;;;16.02;71.40;101299.19;4949481;28;98637;-51
2021/12/31 03:20:41;;;;;;;3.60;3.30;;;;;;;16.04;71.44;101285.56;4947818;28;98416;-49
2021/12/31 03:23:07;;;;;;;3.30;3.00;;;;;;;16.04;71.34;101280.00;4948906;28;97559;-49
2021/12/31 03:25:32;;;;;;;4.77;3.80;;;;;;;16.02;71.21;101279.00;4957166;28;96973;-49
2021/12/31 03:27:58;;;;;;;4.33;3.80;;;;;;;16.00;71.41;101273.97;4947188;28;97934;-49
2021/12/31 03:30:23;;;;;;;3.20;3.00;;;;;;;15.99;71.36;101280.06;4941784;28;97006;-52
2021/12/31 03:32:48;;;;;;;3.97;3.60;;;;;;;15.98;71.54;101276.53;4954034;28;96858;-49
2021/12/31 03:35:14;;;;;;;3.50;3.20;;;;;;;16.00;71.42;101273.22;4945121;28;111508;-49
2021/12/31 03:37:39;;;;;;;4.60;4.30;;;;;;;16.00;71.42;101270.44;4951525;28;113784;-49
2021/12/31 03:40:05;;;;;;;3.80;3.60;;;;;;;16.00;71.31;101285.09;4948542;28;108687;-50
2021/12/31 03:42:31;;;;;;;4.20;3.90;;;;;;;16.02;71.32;101287.34;4948372;28;97529;-50
2021/12/31 03:44:57;;;;;;;3.90;3.60;;;;;;;16.01;71.36;101292.13;4949935;28;96827;-50
2021/12/31 03:47:22;;;;;;;5.27;4.53;;;;;;;16.00;71.32;101287.88;4947682;28;116712;-53
2021/12/31 03:49:47;;;;;;;4.00;3.60;;;;;;;16.00;71.33;101287.09;4949323;28;111135;-50
2021/12/31 03:52:13;;;;;;;6.20;3.67;;;;;;;15.99;71.29;101283.56;4953088;28;97321;-50
2021/12/31 03:54:38;;;;;;;6.20;3.53;;;;;;;15.99;71.37;101286.34;4947922;28;96811;-49
2021/12/31 03:57:04;;;;;;;4.57;3.77;;;;;;;15.99;71.24;101282.84;4950977;28;126693;-49
2021/12/31 03:59:29;;;;;;;3.57;3.30;;;;;;;15.97;71.34;101280.56;4952441;28;97016;-50
2021/12/31 04:01:54;;;;;;;4.60;3.77;;;;;;;15.99;71.39;101283.56;4945203;28;97144;-48
2021/12/31 04:04:19;;;;;;;5.87;3.87;;;;;;;15.98;71.28;101284.09;4946128;28;97207;-54
2021/12/31 04:06:45;;;;;;;4.77;4.37;;;;;;;15.97;71.33;101280.56;4946092;28;126612;-50
2021/12/31 04:09:10;;;;;;;3.63;3.43;;;;;;;15.98;71.27;101270.22;4946661;28;126549;-52
2021/12/31 04:11:35;;;;;;;5.17;3.53;;;;;;;15.98;71.34;101270.97;4946776;28;115901;-52
2021/12/31 04:14:01;;;;;;;3.63;3.40;;;;;;;16.00;71.32;101265.66;4945454;28;115399;-50
2021/12/31 04:16:26;;;;;;;5.63;3.70;;;;;;;16.04;71.24;101276.47;4954157;28;108126;-51
2021/12/31 04:18:51;;;;;;;4.17;3.80;;;;;;;16.03;71.21;101267.38;4952053;28;118555;-49
2021/12/31 04:21:19;;;;;;;5.43;3.80;;;;;;;16.01;71.17;101275.47;4952253;28;115895;-51
2021/12/31 04:23:49;;;;;;;4.77;3.37;;;;;;;16.03;71.15;101269.44;4954352;28;98083;-52
2021/12/31 04:26:24;;;;;;;4.23;3.20;;;;;;;16.03;70.88;101267.38;4946003;28;97583;-55
2021/12/31 04:28:49;;;;;;;7.93;3.70;;;;;;;16.01;71.09;101260.88;4943315;28;127823;-49
2021/12/31 04:31:14;;;;;;;5.83;3.40;;;;;;;16.01;71.09;101255.31;4947454;28;96918;-52
2021/12/31 04:33:40;;;;;;;6.23;3.90;;;;;;;16.02;71.08;101259.59;4946828;28;97466;-50
2021/12/31 04:36:05;;;;;;;3.67;3.47;;;;;;;16.03;71.00;101261.09;4955218;28;97409;-51
2021/12/31 04:38:31;;;;;;;5.23;3.40;;;;;;;15.99;71.09;101257.84;4945720;28;102253;-49
2021/12/31 04:40:56;;;;;;;3.77;3.20;;;;;;;16.00;71.02;101256.56;4951501;28;96958;-49
2021/12/31 04:43:21;;;;;;;3.20;3.10;;;;;;;15.98;71.06;101261.88;4948676;28;97467;-51
2021/12/31 04:45:47;;;;;;;3.37;3.17;;;;;;;15.96;71.07;101261.66;4951102;28;96893;-49
2021/12/31 04:48:12;;;;;;;4.10;3.30;;;;;;;15.97;71.15;101252.78;4947897;28;118802;-49
2021/12/31 04:50:37;;;;;;;4.20;3.17;;;;;;;15.97;71.11;101263.13;4951235;28;97457;-51
2021/12/31 04:53:04;;;;;;;3.23;3.00;;;;;;;15.98;71.06;101250.78;4945494;28;100484;-53
2021/12/31 04:55:30;;;;;;;4.40;3.43;;;;;;;15.97;71.11;101258.34;4943838;28;97197;-50
2021/12/31 04:57:55;;;;;;;3.20;2.93;;;;;;;16.01;71.03;101267.16;4943742;28;97665;-49
2021/12/31 05:00:21;;;;;;;4.13;3.23;;;;;;;16.00;70.85;101262.13;4948810;28;104234;-49
2021/12/31 05:02:46;;;;;;;3.13;2.67;;;;;;;16.01;70.87;101269.91;4941504;28;97912;-49
2021/12/31 05:05:12;;;;;;;3.13;2.93;;;;;;;16.04;70.76;101252.25;4946257;28;97302;-56
2021/12/31 05:07:37;;;;;;;3.27;2.60;;;;;;;16.04;70.69;101254.25;4943960;28;96948;-51
2021/12/31 05:10:03;;;;;;;3.50;2.97;;;;;;;16.02;70.83;101254.78;4948564;28;97233;-51
2021/12/31 05:12:32;;;;;;;3.10;2.90;;;;;;;15.99;70.70;101261.34;4942067;28;97803;-48
2021/12/31 05:14:57;;;;;;;3.00;2.80;;;;;;;16.00;70.84;101262.13;4951025;28;98445;-52
2021/12/31 05:17:22;;;;;;;3.30;3.00;;;;;;;15.98;71.13;101273.75;4943514;28;97265;-52
2021/12/31 05:19:48;;;;;;;2.83;2.60;;;;;;;15.99;70.79;101269.69;4942037;28;116929;-54
2021/12/31 05:22:14;;;;;;;2.30;2.10;;;;;;;16.01;70.85;101255.31;4945502;28;98149;-49
2021/12/31 05:24:40;;;;;;;4.73;2.90;;;;;;;16.02;70.72;101267.91;4944405;28;96958;-51
2021/12/31 05:27:07;;;;;;;5.37;2.23;;;;;;;16.02;70.74;101260.34;4943297;28;97154;-49
2021/12/31 05:29:34;;;;;;;2.70;2.37;;;;;;;16.04;70.78;101257.03;4949436;28;96883;-50
2021/12/31 05:32:00;;;;;;;2.53;2.37;;;;;;;16.05;70.74;101251.00;4944494;28;97307;-49
2021/12/31 05:34:26;;;;;;;2.27;2.07;;;;;;;16.07;70.63;101251.22;4947961;28;98922;-51
2021/12/31 05:36:51;;;;;;;2.67;2.43;;;;;;;16.06;70.61;101248.94;4948177;28;97140;-50
2021/12/31 05:39:16;;;;;;;2.03;1.93;;;;;;;16.06;70.64;101248.94;4947618;28;108933;-50
2021/12/31 05:41:42;;;;;;;2.80;2.03;;;;;;;16.07;70.44;101245.69;4947413;28;96873;-48
2021/12/31 05:44:08;;;;;;;3.83;2.10;;;;;;;16.05;70.63;101253.78;4942593;28;97506;-51
2021/12/31 05:46:34;;;;;;;2.30;2.20;;;;;;;16.06;70.58;101251.72;4943956;28;97054;-49
2021/12/31 05:49:00;;;;;;;1.63;1.63;;;;;;;16.05;70.58;101245.44;4945592;28;96784;-51
2021/12/31 05:51:27;;;;;;;3.87;1.80;;;;;;;16.05;70.62;101248.22;4943252;28;97573;-50
2021/12/31 05:53:53;;;;;;;1.90;1.60;;;;;;;16.08;70.47;101255.50;4950385;28;97115;-50
2021/12/31 05:56:18;;;;;;;2.60;1.97;;;;;;;16.10;70.46;101249.41;4951435;28;97143;-50
2021/12/31 05:58:43;;;;;;;3.83;1.83;;;;;;;16.10;70.51;101252.19;4948311;28;117043;-53
2021/12/31 06:01:09;;;;;;;2.63;1.53;;;;;;;16.08;70.26;101249.19;4946967;28;97414;-49
2021/12/31 06:03:34;;;;;;;5.10;2.33;;;;;;;16.08;70.43;101247.16;4942914;28;97588;-52
2021/12/31 06:05:59;;;;;;;3.30;1.73;;;;;;;16.06;70.46;101246.94;4938662;28;115921;-51
2021/12/31 06:08:25;;;;;;;4.10;2.20;;;;;;;16.07;70.48;101251.22;4941782;28;96924;-49
2021/12/31 06:10:50;;;;;;;1.83;1.20;;;;;;;16.09;70.51;101240.38;4944069;28;117940;-49
2021/12/31 06:13:15;;;;;;;2.80;1.93;;;;;;;16.08;70.20;101246.41;4945794;28;97334;-48
2021/12/31 06:15:44;;;;;;;3.70;2.27;;;;;;;16.08;70.39;101251.97;4943676;28;99981;-48
2021/12/31 06:18:10;;;;;;;1.77;1.67;;;;;;;16.09;70.27;101245.16;4949755;28;97601;-49
2021/12/31 06:20:36;;;;;;;2.17;2.07;;;;;;;16.08;70.22;101255.50;4954177;28;96934;-50
2021/12/31 06:23:01;;;;;;;1.97;1.50;;;;;;;16.08;70.21;101244.41;4944792;28;97785;-56
2021/12/31 06:25:27;;;;;;;6.93;2.10;;;;;;;16.08;70.23;101251.97;4945059;28;125880;-50
2021/12/31 06:27:53;;;;;;;2.17;2.00;;;;;;;16.09;70.32;101256.25;4944355;28;96907;-48
2021/12/31 06:30:18;;;;;;;2.17;2.00;;;;;;;16.09;70.33;101253.47;4943919;28;97454;-49
2021/12/31 06:32:44;;;;;;;2.00;1.90;;;;;;;16.09;70.19;101234.06;4947731;28;97044;-51
2021/12/31 06:35:09;;;;;;;3.90;1.53;;;;;;;16.08;70.22;101229.75;4945847;28;97370;-49
2021/12/31 06:37:34;;;;;;;7.27;1.90;;;;;;;16.09;70.18;101229.25;4943503;28;97091;-48
2021/12/31 06:40:04;;;;;;;1.67;1.57;;;;;;;16.09;70.16;101237.59;4950164;28;96860;-49
2021/12/31 06:42:29;;;;;;;1.53;1.43;;;;;;;16.08;70.21;101233.28;4943664;28;96913;-49
2021/12/31 06:44:55;;;;;;;3.63;1.80;;;;;;;16.07;70.13;101234.56;4953520;28;98087;-49
2021/12/31 06:47:20;;;;;;;4.53;2.03;;;;;;;16.08;70.08;101233.28;4948197;28;96837;-48
2021/12/31 06:49:45;;;;;;;2.83;1.63;;;;;;;16.10;70.12;101227.22;4946448;28;116089;-50
2021/12/31 06:52:10;;;;;;;5.33;1.70;;;;;;;16.10;70.08;101216.88;4949060;28;106737;-49
2021/12/31 06:54:36;;;;;;;1.60;1.50;;;;;;;16.12;69.90;101219.16;4949326;28;125416;-49
2021/12/31 06:57:03;;;;;;;1.47;1.30;;;;;;;16.10;69.84;101210.56;4949892;28;96698;-52
2021/12/31 06:59:29;;;;;;;1.90;1.80;;;;;;;16.09;69.84;101217.41;4950353;28;96834;-49
2021/12/31 07:01:55;;;;;;;1.53;1.47;;;;;;;16.05;69.73;101206.59;4949627;28;97368;-49
2021/12/31 07:04:20;;;;;;;1.60;1.50;;;;;;;16.01;69.80;101208.88;4956441;28;97176;-51
2021/12/31 07:06:45;;;;;;;3.07;1.30;;;;;;;15.98;69.74;101211.94;4949750;28;97314;-49
2021/12/31 07:09:11;;;;;;;2.07;1.50;;;;;;;15.95;69.78;101199.84;4945868;28;96987;-51
2021/12/31 07:11:36;;;;;;;1.10;1.10;;;;;;;15.94;69.69;101197.59;4955385;28;98532;-52
2021/12/31 07:14:01;;;;;;;1.40;1.20;;;;;;;15.90;69.65;101208.94;4946109;28;101244;-54
2021/12/31 07:16:27;;;;;;;1.40;1.30;;;;;;;15.87;69.50;101203.69;4950081;28;96916;-48
2021/12/31 07:18:52;;;;;;;2.80;1.27;;;;;;;15.83;69.72;101209.53;4953210;28;117642;-48
2021/12/31 07:21:17;;;;;;;2.30;1.50;;;;;;;15.82;69.63;101213.56;4945768;28;104390;-50
2021/12/31 07:23:43;;;;;;;2.60;1.10;;;;;;;15.80;69.67;101210.53;4945709;28;123599;-52
2021/12/31 07:26:08;;;;;;;2.20;1.20;;;;;;;15.78;69.54;101207.53;4951276;28;118371;-48
2021/12/31 07:28:33;;;;;;;1.13;1.07;;;;;;;15.77;69.85;101208.06;4950991;28;102776;-53
2021/12/31 07:30:59;;;;;;;1.73;1.10;;;;;;;15.77;69.55;101209.53;4953863;28;97258;-49
2021/12/31 07:33:25;;;;;;;5.43;1.10;;;;;;;15.77;69.46;101198.44;4949177;28;97463;-52
2021/12/31 07:35:52;;;;;;;3.60;1.10;;;;;;;15.73;69.40;101202.75;4953493;28;97022;-49
2021/12/31 07:38:21;;;;;;;1.20;1.10;;;;;;;15.74;69.37;101204.28;4951359;28;97054;-48
2021/12/31 07:40:51;;;;;;;2.40;1.20;;;;;;;15.72;69.28;101193.72;4948282;28;97802;-49
2021/12/31 07:43:18;;;;;;;0.70;0.70;;;;;;;15.71;69.26;101203.28;4952608;28;100216;-51
2021/12/31 07:45:43;;;;;;;3.17;1.30;;;;;;;15.73;69.29;101197.22;4946870;28;96820;-48
2021/12/31 07:48:09;;;;;;;1.47;0.97;;;;;;;15.74;69.31;101204.28;4947326;28;96927;-53
2021/12/31 07:50:36;;;;;;;0.80;0.80;;;;;;;15.75;69.21;101197.44;4947613;28;97417;-48
2021/12/31 07:53:03;;;;;;;1.10;1.10;;;;;;;15.73;69.14;101197.97;4950364;28;97199;-56
2021/12/31 07:55:28;;;;;;;3.67;0.97;;;;;;;15.72;69.22;101209.59;4956246;28;97097;-54
2021/12/31 07:57:54;;;;;;;4.20;0.97;;;;;;;15.75;69.16;101225.19;4953206;28;96945;-48
2021/12/31 08:00:19;;;;;;;1.07;1.07;;;;;;;15.79;69.12;101216.59;4950514;28;97770;-51
2021/12/31 08:02:44;;;;;;;1.57;0.90;;;;;;;15.78;68.95;101221.41;4949159;28;123997;-50
2021/12/31 08:05:10;;;;;;;2.00;1.23;;;;;;;15.81;68.99;101220.38;4946584;28;107298;-50
2021/12/31 08:07:35;;;;;;;1.50;0.90;;;;;;;15.83;68.87;101228.19;4949224;28;97182;-48
2021/12/31 08:10:02;;;;;;;0.83;0.83;;;;;;;15.84;68.82;101238.00;4947353;28;102339;-55
2021/12/31 08:12:28;;;;;;;3.47;0.97;;;;;;;15.85;68.81;101236.75;4943547;28;98567;-49
2021/12/31 08:14:53;;;;;;;1.57;1.20;;;;;;;15.86;68.72;101229.94;4943871;28;96896;-48
2021/12/31 08:17:18;;;;;;;1.67;1.00;;;;;;;15.89;68.83;101237.97;4949240;28;97022;-49
2021/12/31 08:19:44;;;;;;;0.77;0.77;;;;;;;15.91;68.82;101227.13;4945752;28;111758;-51
2021/12/31 08:22:09;;;;;;;1.20;0.83;;;;;;;15.92;68.71;101214.75;4950876;28;97639;-49
2021/12/31 08:24:34;;;;;;;3.87;1.17;;;;;;;15.93;68.66;101221.81;4949355;28;96685;-48
2021/12/31 08:27:00;;;;;;;5.07;1.33;;;;;;;15.96;68.64;101226.34;4947124;28;116817;-51
2021/12/31 08:29:25;;;;;;;1.13;1.03;;;;;;;16.01;68.66;101231.06;4956040;28;98756;-48
2021/12/31 08:31:51;;;;;;;1.63;1.13;;;;;;;16.01;68.57;101231.06;4945770;28;97227;-51
2021/12/31 08:34:16;;;;;;;1.77;1.30;;;;;;;16.02;68.56;101226.28;4942718;28;96778;-48
2021/12/31 08:36:41;;;;;;;1.87;1.20;;;;;;;16.03;68.42;101214.66;4944532;28;98750;-49
2021/12/31 08:39:09;;;;;;;2.03;1.40;;;;;;;16.04;68.39;101224.50;4944694;28;105055;-48
2021/12/31 08:41:35;;;;;;;1.67;1.00;;;;;;;16.04;68.31;101210.63;4949229;28;101591;-49
2021/12/31 08:44:00;;;;;;;3.37;1.00;;;;;;;16.08;68.53;101202.00;4949202;28;98843;-49
2021/12/31 08:46:26;;;;;;;0.97;0.97;;;;;;;16.08;68.35;101216.63;4946343;28;110457;-49
2021/12/31 08:48:53;;;;;;;2.40;1.00;;;;;;;16.12;68.50;101224.69;4953701;28;115417;-48
2021/12/31 08:51:18;;;;;;;0.97;0.90;;;;;;;16.13;68.32;101215.84;4947394;28;97457;-52
2021/12/31 08:53:44;;;;;;;1.00;1.00;;;;;;;16.15;68.31;101218.09;4949068;28;97056;-48
2021/12/31 08:56:09;;;;;;;3.77;1.20;;;;;;;16.16;68.17;101214.78;4943705;28;97478;-48
2021/12/31 08:58:35;;;;;;;1.10;1.00;;;;;;;16.17;68.02;101221.88;4946592;28;97566;-50
2021/12/31 09:01:00;;;;;;;2.60;1.33;;;;;;;16.20;68.18;101211.75;4944079;28;102101;-48
2021/12/31 09:03:25;;;;;;;1.00;1.00;;;;;;;16.22;68.14;101225.88;4947947;28;97323;-49
2021/12/31 09:05:51;;;;;;;2.23;0.87;;;;;;;16.24;67.94;101223.31;4941632;28;97022;-52
2021/12/31 09:08:16;;;;;;;1.60;1.13;;;;;;;16.27;68.00;101223.03;4946704;28;127920;-50
2021/12/31 09:10:42;;;;;;;1.67;1.00;;;;;;;16.30;67.87;101227.56;4943678;28;96942;-50
2021/12/31 09:13:07;;;;;;;1.23;0.80;;;;;;;16.32;67.93;101243.69;4949736;28;96814;-54
2021/12/31 09:15:32;;;;;;;1.70;1.27;;;;;;;16.32;67.80;101255.56;4950913;28;96839;-51
2021/12/31 09:17:58;;;;;;;3.67;1.17;;;;;;;16.32;67.52;101249.25;4943123;28;126884;-51
2021/12/31 09:20:23;;;;;;;2.00;1.17;;;;;;;16.33;67.66;101245.97;4943496;28;97413;-52
2021/12/31 09:22:49;;;;;;;3.00;1.33;;;;;;;16.34;67.71;101255.03;4944932;28;97496;-48
2021/12/31 09:25:15;;;;;;;1.87;1.20;;;;;;;16.36;67.72;101256.03;4945517;28;96923;-49
2021/12/31 09:27:41;;;;;;;1.73;1.20;;;;;;;16.35;67.60;101253.78;4948771;28;97960;-48
2021/12/31 09:30:08;;;;;;;1.20;1.10;;;;;;;16.34;67.53;101253.03;4948125;28;97672;-50
2021/12/31 09:32:34;;;;;;;1.50;1.40;;;;;;;16.38;67.58;101258.31;4949124;28;97117;-49
2021/12/31 09:34:59;;;;;;;1.17;1.13;;;;;;;16.36;67.38;101252.50;4951362;28;97064;-48
2021/12/31 09:37:24;;;;;;;2.00;1.20;;;;;;;16.37;67.56;101259.56;4946112;28;97391;-52
2021/12/31 09:39:50;;;;;;;0.90;0.90;;;;;;;16.36;67.60;101261.59;4949007;28;126584;-51
2021/12/31 09:42:15;;;;;;;5.70;1.00;;;;;;;16.41;67.52;101260.03;4947061;28;96820;-52
2021/12/31 09:44:43;;;;;;;2.30;1.30;;;;;;;16.43;67.52;101263.03;4940183;28;96906;-49
2021/12/31 09:47:13;;;;;;;1.67;1.23;;;;;;;16.45;67.43;101258.47;4947507;28;98697;-49
2021/12/31 09:49:39;;;;;;;4.00;1.30;;;;;;;16.45;67.34;101258.47;4944465;28;97254;-49
2021/12/31 09:52:06;;;;;;;2.77;1.43;;;;;;;16.44;67.25;101262.53;4946375;28;97187;-48
2021/12/31 09:54:32;;;;;;;1.00;0.97;;;;;;;16.44;67.29;101257.00;4946351;28;97438;-49
2021/12/31 09:56:57;;;;;;;6.43;1.30;;;;;;;16.44;67.19;101251.44;4946952;28;97400;-52
2021/12/31 09:59:24;;;;;;;1.80;1.47;;;;;;;16.46;67.32;101250.91;4951967;28;97405;-50
2021/12/31 10:01:52;;;;;;;1.53;1.37;;;;;;;16.48;67.14;101262.25;4944421;28;96956;-49
2021/12/31 10:04:17;;;;;;;1.40;1.30;;;;;;;16.51;67.12;101249.38;4945920;28;96756;-49
2021/12/31 10:07:08;;;;;;;0.93;0.93;;;;;;;16.53;66.46;101246.84;4951465;28;98359;-49
2021/12/31 10:09:35;;;;;;;0.90;0.87;;;;;;;16.54;67.04;101243.53;4943199;28;100381;-49
2021/12/31 10:12:00;;;;;;;4.73;0.87;;;;;;;16.54;67.03;101240.75;4946001;28;97130;-52
2021/12/31 10:14:36;;;;;;;2.20;1.20;;;;;;;16.56;66.77;101238.22;4947405;28;96763;-48
2021/12/31 10:17:01;;;;;;;2.87;1.37;;;;;;;16.56;66.86;101232.66;4943471;28;102134;-56
2021/12/31 10:19:27;;;;;;;2.30;0.97;;;;;;;16.57;66.94;101217.50;4948398;28;96623;-52
2021/12/31 10:21:54;;;;;;;1.63;1.53;;;;;;;16.62;66.94;101213.16;4945446;28;118196;-48
2021/12/31 10:24:25;;;;;;;1.10;1.00;;;;;;;16.66;66.54;101216.41;4946224;28;97176;-49
2021/12/31 10:26:53;;;;;;;2.23;1.00;;;;;;;16.72;66.73;101219.88;4944724;28;98682;-50
2021/12/31 10:29:19;;;;;;;3.17;0.93;;;;;;;16.74;66.69;101226.41;4951345;28;97289;-49
2021/12/31 10:31:47;;;;;;;2.40;0.87;;;;;;;16.75;66.35;101213.28;4944248;28;97509;-50
2021/12/31 10:34:41;;;;;;;1.57;0.87;;;;;;;16.77;65.53;101224.63;4944242;28;96892;-49
2021/12/31 10:37:23;;;;;;;1.10;0.97;;;;;;;16.73;64.77;101229.72;4945660;28;100950;-51
2021/12/31 10:40:00;;;;;;;2.25;1.60;;;;;;;16.86;64.85;101227.06;4939154;28;101576;-50
2021/12/31 10:42:31;;;;;;;1.10;1.00;;;;;;;16.79;65.76;101219.28;4947697;28;97000;-49
2021/12/31 10:44:58;;;;;;;2.37;1.10;;;;;;;16.77;65.87;101216.28;4948590;28;96943;-50
2021/12/31 10:47:28;;;;;;;1.67;1.13;;;;;;;16.75;65.89;101227.16;4946353;28;100638;-53
2021/12/31 10:49:56;;;;;;;1.70;1.00;;;;;;;16.73;65.83;101233.22;4951170;28;104978;-48
2021/12/31 10:52:34;;;;;;;3.33;1.10;;;;;;;16.74;65.84;101225.66;4944689;28;97964;-50
2021/12/31 10:55:41;;;;;;;3.27;0.87;;;;;;;16.74;65.63;101222.88;4948698;28;97438;-49
2021/12/31 10:58:05;;;;;;;0.87;0.87;;;;;;;16.73;65.95;101226.94;4945543;28;100544;-48
2021/12/31 11:00:37;;;;;;;1.30;0.80;;;;;;;16.72;65.25;101225.44;4947695;28;96888;-53
2021/12/31 11:03:03;;;;;;;2.10;1.27;;;;;;;16.70;65.96;101219.63;4943245;28;97053;-49
2021/12/31 11:05:29;;;;;;;2.57;1.17;;;;;;;16.71;65.95;101223.94;4947572;28;96838;-50
2021/12/31 11:07:58;;;;;;;1.53;1.20;;;;;;;16.70;65.60;101220.41;4942233;28;127404;-49
2021/12/31 11:10:26;;;;;;;1.57;1.10;;;;;;;16.72;65.87;101223.41;4950513;28;96740;-51
2021/12/31 11:12:52;;;;;;;0.83;0.83;;;;;;;16.72;65.74;101228.19;4947498;28;97116;-52
2021/12/31 11:15:17;;;;;;;1.57;0.97;;;;;;;16.73;65.72;101232.50;4944634;28;98733;-48
2021/12/31 11:17:43;;;;;;;2.20;1.10;;;;;;;16.73;65.73;101240.84;4951763;28;97247;-49
2021/12/31 11:20:09;;;;;;;1.67;1.00;;;;;;;16.75;65.66;101238.28;4950150;28;96973;-48
2021/12/31 11:22:36;;;;;;;2.70;0.97;;;;;;;16.76;65.74;101226.66;4948080;28;96956;-51